sensor_id;sensor_type;location;lat;lon;timestamp;P1;durP1;ratioP1;P2;durP2;ratioP2
69434;SDS011;56625;54.322;18.582;2023-10-19T00:01:16;11.50;;;4.70;;
69434;SDS011;56625;54.322;18.582;2023-10-19T00:03:46;12.50;;;4.80;;
69434;SDS011;56625;54.322;18.582;2023-10-19T00:06:14;14.70;;;5.70;;
69434;SDS011;56625;54.322;18.582;2023-10-19T00:08:41;14.50;;;5.50;;
69434;SDS011;56625;54.322;18.582;2023-10-19T00:11:10;12.50;;;4.70;;
69434;SDS011;56625;54.322;18.582;2023-10-19T00:13:49;13.00;;;4.80;;
69434;SDS011;56625;54.322;18.582;2023-10-19T00:16:25;12.80;;;4.90;;
69434;SDS011;56625;54.322;18.582;2023-10-19T00:18:57;11.50;;;4.60;;
69434;SDS011;56625;54.322;18.582;2023-10-19T00:21:27;13.70;;;4.60;;
69434;SDS011;56625;54.322;18.582;2023-10-19T00:23:57;9.90;;;3.90;;
69434;SDS011;56625;54.322;18.582;2023-10-19T00:26:29;13.30;;;4.60;;
69434;SDS011;56625;54.322;18.582;2023-10-19T00:28:57;9.70;;;3.90;;
69434;SDS011;56625;54.322;18.582;2023-10-19T00:31:27;10.80;;;3.60;;
69434;SDS011;56625;54.322;18.582;2023-10-19T00:33:56;10.00;;;3.70;;
69434;SDS011;56625;54.322;18.582;2023-10-19T00:36:24;10.60;;;3.90;;
69434;SDS011;56625;54.322;18.582;2023-10-19T00:38:53;12.50;;;3.60;;
69434;SDS011;56625;54.322;18.582;2023-10-19T00:41:25;11.20;;;3.80;;
69434;SDS011;56625;54.322;18.582;2023-10-19T00:44:00;10.30;;;3.50;;
69434;SDS011;56625;54.322;18.582;2023-10-19T00:46:35;10.90;;;3.40;;
69434;SDS011;56625;54.322;18.582;2023-10-19T00:49:13;10.40;;;2.80;;
69434;SDS011;56625;54.322;18.582;2023-10-19T00:51:52;8.50;;;2.70;;
69434;SDS011;56625;54.322;18.582;2023-10-19T00:54:34;10.50;;;3.10;;
69434;SDS011;56625;54.322;18.582;2023-10-19T00:57:04;9.50;;;2.50;;
69434;SDS011;56625;54.322;18.582;2023-10-19T00:59:41;8.40;;;2.70;;
69434;SDS011;56625;54.322;18.582;2023-10-19T01:02:22;7.40;;;2.20;;
69434;SDS011;56625;54.322;18.582;2023-10-19T01:04:54;7.60;;;2.40;;
69434;SDS011;56625;54.322;18.582;2023-10-19T01:07:33;9.00;;;2.00;;
69434;SDS011;56625;54.322;18.582;2023-10-19T01:10:07;7.30;;;2.10;;
69434;SDS011;56625;54.322;18.582;2023-10-19T01:12:36;6.20;;;1.80;;
69434;SDS011;56625;54.322;18.582;2023-10-19T01:15:16;7.20;;;2.00;;
69434;SDS011;56625;54.322;18.582;2023-10-19T01:17:47;7.80;;;1.30;;
69434;SDS011;56625;54.322;18.582;2023-10-19T01:20:29;9.70;;;2.00;;
69434;SDS011;56625;54.322;18.582;2023-10-19T01:23:08;7.00;;;1.80;;
69434;SDS011;56625;54.322;18.582;2023-10-19T01:25:44;7.10;;;1.60;;
69434;SDS011;56625;54.322;18.582;2023-10-19T01:28:26;7.10;;;1.40;;
69434;SDS011;56625;54.322;18.582;2023-10-19T01:31:16;6.30;;;1.40;;
69434;SDS011;56625;54.322;18.582;2023-10-19T01:34:00;5.80;;;1.40;;
69434;SDS011;56625;54.322;18.582;2023-10-19T01:36:37;6.00;;;1.30;;
69434;SDS011;56625;54.322;18.582;2023-10-19T01:39:10;7.40;;;1.40;;
69434;SDS011;56625;54.322;18.582;2023-10-19T01:41:39;8.10;;;1.50;;
69434;SDS011;56625;54.322;18.582;2023-10-19T01:44:09;7.70;;;1.70;;
69434;SDS011;56625;54.322;18.582;2023-10-19T01:46:42;6.50;;;1.50;;
69434;SDS011;56625;54.322;18.582;2023-10-19T01:49:14;4.70;;;1.20;;
69434;SDS011;56625;54.322;18.582;2023-10-19T01:51:42;6.60;;;1.30;;
69434;SDS011;56625;54.322;18.582;2023-10-19T01:54:11;8.30;;;1.40;;
69434;SDS011;56625;54.322;18.582;2023-10-19T01:56:42;5.10;;;1.10;;
69434;SDS011;56625;54.322;18.582;2023-10-19T01:59:11;5.80;;;1.00;;
69434;SDS011;56625;54.322;18.582;2023-10-19T02:01:39;5.30;;;1.00;;
69434;SDS011;56625;54.322;18.582;2023-10-19T02:04:11;5.90;;;1.40;;
69434;SDS011;56625;54.322;18.582;2023-10-19T02:06:41;7.40;;;1.50;;
69434;SDS011;56625;54.322;18.582;2023-10-19T02:09:13;6.10;;;1.30;;
69434;SDS011;56625;54.322;18.582;2023-10-19T02:11:50;6.00;;;1.60;;
69434;SDS011;56625;54.322;18.582;2023-10-19T02:14:26;6.50;;;1.60;;
69434;SDS011;56625;54.322;18.582;2023-10-19T02:17:00;7.40;;;1.80;;
69434;SDS011;56625;54.322;18.582;2023-10-19T02:19:31;6.50;;;1.50;;
69434;SDS011;56625;54.322;18.582;2023-10-19T02:22:02;7.40;;;1.60;;
69434;SDS011;56625;54.322;18.582;2023-10-19T02:24:39;6.20;;;1.60;;
69434;SDS011;56625;54.322;18.582;2023-10-19T02:27:07;6.90;;;2.10;;
69434;SDS011;56625;54.322;18.582;2023-10-19T02:29:46;6.30;;;1.80;;
69434;SDS011;56625;54.322;18.582;2023-10-19T02:32:14;7.20;;;1.50;;
69434;SDS011;56625;54.322;18.582;2023-10-19T02:34:45;5.80;;;1.50;;
69434;SDS011;56625;54.322;18.582;2023-10-19T02:37:14;7.20;;;1.30;;
69434;SDS011;56625;54.322;18.582;2023-10-19T02:39:42;5.30;;;1.40;;
69434;SDS011;56625;54.322;18.582;2023-10-19T02:42:11;7.40;;;1.40;;
69434;SDS011;56625;54.322;18.582;2023-10-19T02:44:39;7.30;;;1.70;;
69434;SDS011;56625;54.322;18.582;2023-10-19T02:47:07;6.70;;;1.50;;
69434;SDS011;56625;54.322;18.582;2023-10-19T02:49:37;5.30;;;1.40;;
69434;SDS011;56625;54.322;18.582;2023-10-19T02:52:11;6.10;;;1.40;;
69434;SDS011;56625;54.322;18.582;2023-10-19T02:54:41;7.00;;;1.80;;
69434;SDS011;56625;54.322;18.582;2023-10-19T02:57:09;5.90;;;1.70;;
69434;SDS011;56625;54.322;18.582;2023-10-19T02:59:40;6.50;;;1.60;;
69434;SDS011;56625;54.322;18.582;2023-10-19T03:02:08;8.60;;;2.50;;
69434;SDS011;56625;54.322;18.582;2023-10-19T03:04:39;7.50;;;2.60;;
69434;SDS011;56625;54.322;18.582;2023-10-19T03:07:10;9.20;;;2.80;;
69434;SDS011;56625;54.322;18.582;2023-10-19T03:09:41;7.50;;;3.00;;
69434;SDS011;56625;54.322;18.582;2023-10-19T03:12:21;8.10;;;2.70;;
69434;SDS011;56625;54.322;18.582;2023-10-19T03:14:54;8.00;;;2.50;;
69434;SDS011;56625;54.322;18.582;2023-10-19T03:17:22;11.20;;;3.00;;
69434;SDS011;56625;54.322;18.582;2023-10-19T03:19:52;8.70;;;3.00;;
69434;SDS011;56625;54.322;18.582;2023-10-19T03:22:20;11.10;;;3.10;;
69434;SDS011;56625;54.322;18.582;2023-10-19T03:24:48;9.00;;;3.20;;
69434;SDS011;56625;54.322;18.582;2023-10-19T03:27:26;9.70;;;3.70;;
69434;SDS011;56625;54.322;18.582;2023-10-19T03:29:54;10.20;;;3.40;;
69434;SDS011;56625;54.322;18.582;2023-10-19T03:32:24;10.50;;;3.60;;
69434;SDS011;56625;54.322;18.582;2023-10-19T03:35:03;9.70;;;3.30;;
69434;SDS011;56625;54.322;18.582;2023-10-19T03:37:32;8.60;;;3.20;;
69434;SDS011;56625;54.322;18.582;2023-10-19T03:40:04;9.10;;;3.30;;
69434;SDS011;56625;54.322;18.582;2023-10-19T03:42:42;8.30;;;3.20;;
69434;SDS011;56625;54.322;18.582;2023-10-19T03:45:14;9.40;;;3.30;;
69434;SDS011;56625;54.322;18.582;2023-10-19T03:47:42;9.30;;;3.50;;
69434;SDS011;56625;54.322;18.582;2023-10-19T03:50:17;9.80;;;3.40;;
69434;SDS011;56625;54.322;18.582;2023-10-19T03:52:48;10.10;;;3.70;;
69434;SDS011;56625;54.322;18.582;2023-10-19T03:55:16;12.10;;;4.20;;
69434;SDS011;56625;54.322;18.582;2023-10-19T03:57:51;11.60;;;3.60;;
69434;SDS011;56625;54.322;18.582;2023-10-19T04:00:22;9.60;;;3.90;;
69434;SDS011;56625;54.322;18.582;2023-10-19T04:02:55;10.90;;;3.70;;
69434;SDS011;56625;54.322;18.582;2023-10-19T04:05:26;14.60;;;6.20;;
69434;SDS011;56625;54.322;18.582;2023-10-19T04:07:56;10.70;;;4.80;;
69434;SDS011;56625;54.322;18.582;2023-10-19T04:10:25;9.70;;;4.00;;
69434;SDS011;56625;54.322;18.582;2023-10-19T04:13:03;10.00;;;3.90;;
69434;SDS011;56625;54.322;18.582;2023-10-19T04:15:32;10.80;;;4.40;;
69434;SDS011;56625;54.322;18.582;2023-10-19T04:18:03;10.60;;;4.00;;
69434;SDS011;56625;54.322;18.582;2023-10-19T04:20:38;11.20;;;3.80;;
69434;SDS011;56625;54.322;18.582;2023-10-19T04:23:15;9.80;;;3.50;;
69434;SDS011;56625;54.322;18.582;2023-10-19T04:25:44;10.40;;;3.80;;
69434;SDS011;56625;54.322;18.582;2023-10-19T04:28:15;10.70;;;4.00;;
69434;SDS011;56625;54.322;18.582;2023-10-19T04:30:43;10.20;;;4.20;;
69434;SDS011;56625;54.322;18.582;2023-10-19T04:33:11;11.60;;;4.40;;
69434;SDS011;56625;54.322;18.582;2023-10-19T04:35:39;10.70;;;4.50;;
69434;SDS011;56625;54.322;18.582;2023-10-19T04:38:09;10.10;;;4.30;;
69434;SDS011;56625;54.322;18.582;2023-10-19T04:40:37;11.10;;;4.60;;
69434;SDS011;56625;54.322;18.582;2023-10-19T04:43:05;11.90;;;4.70;;
69434;SDS011;56625;54.322;18.582;2023-10-19T04:45:33;11.00;;;4.30;;
69434;SDS011;56625;54.322;18.582;2023-10-19T04:48:01;11.30;;;4.40;;
69434;SDS011;56625;54.322;18.582;2023-10-19T04:50:32;11.70;;;4.90;;
69434;SDS011;56625;54.322;18.582;2023-10-19T04:53:00;10.60;;;4.60;;
69434;SDS011;56625;54.322;18.582;2023-10-19T04:55:29;10.80;;;4.80;;
69434;SDS011;56625;54.322;18.582;2023-10-19T04:57:58;12.20;;;4.80;;
69434;SDS011;56625;54.322;18.582;2023-10-19T05:00:25;11.60;;;4.50;;
69434;SDS011;56625;54.322;18.582;2023-10-19T05:02:55;12.70;;;5.00;;
69434;SDS011;56625;54.322;18.582;2023-10-19T05:05:24;11.30;;;4.80;;
69434;SDS011;56625;54.322;18.582;2023-10-19T05:07:52;10.40;;;4.60;;
69434;SDS011;56625;54.322;18.582;2023-10-19T05:10:20;12.80;;;5.60;;
69434;SDS011;56625;54.322;18.582;2023-10-19T05:12:48;11.20;;;4.90;;
69434;SDS011;56625;54.322;18.582;2023-10-19T05:15:15;11.20;;;4.80;;
69434;SDS011;56625;54.322;18.582;2023-10-19T05:17:43;11.00;;;4.00;;
69434;SDS011;56625;54.322;18.582;2023-10-19T05:20:13;10.70;;;4.20;;
69434;SDS011;56625;54.322;18.582;2023-10-19T05:22:41;11.70;;;4.40;;
69434;SDS011;56625;54.322;18.582;2023-10-19T05:25:09;11.30;;;4.60;;
69434;SDS011;56625;54.322;18.582;2023-10-19T05:27:38;9.90;;;4.20;;
69434;SDS011;56625;54.322;18.582;2023-10-19T05:30:07;11.10;;;4.00;;
69434;SDS011;56625;54.322;18.582;2023-10-19T05:32:38;9.70;;;4.20;;
69434;SDS011;56625;54.322;18.582;2023-10-19T05:35:06;11.60;;;4.00;;
69434;SDS011;56625;54.322;18.582;2023-10-19T05:37:34;9.90;;;3.80;;
69434;SDS011;56625;54.322;18.582;2023-10-19T05:40:03;11.80;;;3.60;;
69434;SDS011;56625;54.322;18.582;2023-10-19T05:42:32;9.20;;;3.30;;
69434;SDS011;56625;54.322;18.582;2023-10-19T05:45:02;9.10;;;3.40;;
69434;SDS011;56625;54.322;18.582;2023-10-19T05:47:33;9.40;;;3.80;;
69434;SDS011;56625;54.322;18.582;2023-10-19T05:50:01;9.50;;;2.90;;
69434;SDS011;56625;54.322;18.582;2023-10-19T05:52:29;8.40;;;2.20;;
69434;SDS011;56625;54.322;18.582;2023-10-19T05:54:57;7.50;;;2.30;;
69434;SDS011;56625;54.322;18.582;2023-10-19T05:57:25;6.10;;;1.90;;
69434;SDS011;56625;54.322;18.582;2023-10-19T05:59:53;7.60;;;1.90;;
69434;SDS011;56625;54.322;18.582;2023-10-19T06:02:20;6.50;;;2.00;;
69434;SDS011;56625;54.322;18.582;2023-10-19T06:04:59;6.60;;;1.80;;
69434;SDS011;56625;54.322;18.582;2023-10-19T06:07:27;6.80;;;2.10;;
69434;SDS011;56625;54.322;18.582;2023-10-19T06:09:55;4.90;;;1.50;;
69434;SDS011;56625;54.322;18.582;2023-10-19T06:12:23;5.10;;;1.60;;
69434;SDS011;56625;54.322;18.582;2023-10-19T06:14:51;6.40;;;1.50;;
69434;SDS011;56625;54.322;18.582;2023-10-19T06:17:19;5.10;;;1.50;;
69434;SDS011;56625;54.322;18.582;2023-10-19T06:19:48;6.70;;;1.70;;
69434;SDS011;56625;54.322;18.582;2023-10-19T06:22:16;5.00;;;1.40;;
69434;SDS011;56625;54.322;18.582;2023-10-19T06:24:44;6.30;;;1.80;;
69434;SDS011;56625;54.322;18.582;2023-10-19T06:27:12;6.20;;;1.30;;
69434;SDS011;56625;54.322;18.582;2023-10-19T06:29:40;5.10;;;1.40;;
69434;SDS011;56625;54.322;18.582;2023-10-19T06:32:08;4.20;;;1.10;;
69434;SDS011;56625;54.322;18.582;2023-10-19T06:34:37;5.50;;;1.40;;
69434;SDS011;56625;54.322;18.582;2023-10-19T06:37:04;5.60;;;1.30;;
69434;SDS011;56625;54.322;18.582;2023-10-19T06:39:35;5.80;;;1.40;;
69434;SDS011;56625;54.322;18.582;2023-10-19T06:42:08;9.30;;;1.50;;
69434;SDS011;56625;54.322;18.582;2023-10-19T06:44:41;5.00;;;1.30;;
69434;SDS011;56625;54.322;18.582;2023-10-19T06:47:12;7.10;;;1.20;;
69434;SDS011;56625;54.322;18.582;2023-10-19T06:49:41;4.80;;;1.20;;
69434;SDS011;56625;54.322;18.582;2023-10-19T06:52:09;5.40;;;1.50;;
69434;SDS011;56625;54.322;18.582;2023-10-19T06:54:39;4.50;;;1.00;;
69434;SDS011;56625;54.322;18.582;2023-10-19T06:57:07;5.00;;;1.20;;
69434;SDS011;56625;54.322;18.582;2023-10-19T06:59:36;4.20;;;0.90;;
69434;SDS011;56625;54.322;18.582;2023-10-19T07:02:04;5.70;;;1.00;;
69434;SDS011;56625;54.322;18.582;2023-10-19T07:04:35;4.10;;;0.90;;
69434;SDS011;56625;54.322;18.582;2023-10-19T07:07:04;4.30;;;0.90;;
69434;SDS011;56625;54.322;18.582;2023-10-19T07:09:32;6.70;;;1.90;;
69434;SDS011;56625;54.322;18.582;2023-10-19T07:12:02;4.70;;;1.30;;
69434;SDS011;56625;54.322;18.582;2023-10-19T07:14:32;4.00;;;1.00;;
69434;SDS011;56625;54.322;18.582;2023-10-19T07:17:00;3.80;;;0.80;;
69434;SDS011;56625;54.322;18.582;2023-10-19T07:19:28;5.40;;;0.80;;
69434;SDS011;56625;54.322;18.582;2023-10-19T07:21:56;3.80;;;0.90;;
69434;SDS011;56625;54.322;18.582;2023-10-19T07:24:31;3.80;;;0.80;;
69434;SDS011;56625;54.322;18.582;2023-10-19T07:27:03;5.90;;;1.20;;
69434;SDS011;56625;54.322;18.582;2023-10-19T07:29:49;6.00;;;1.20;;
69434;SDS011;56625;54.322;18.582;2023-10-19T07:32:17;4.80;;;1.00;;
69434;SDS011;56625;54.322;18.582;2023-10-19T07:34:45;5.20;;;1.20;;
69434;SDS011;56625;54.322;18.582;2023-10-19T07:37:14;3.20;;;0.80;;
69434;SDS011;56625;54.322;18.582;2023-10-19T07:39:46;4.80;;;0.60;;
69434;SDS011;56625;54.322;18.582;2023-10-19T07:42:15;4.50;;;1.10;;
69434;SDS011;56625;54.322;18.582;2023-10-19T07:44:43;5.10;;;1.20;;
69434;SDS011;56625;54.322;18.582;2023-10-19T07:47:11;4.40;;;1.00;;
69434;SDS011;56625;54.322;18.582;2023-10-19T07:49:40;3.90;;;0.90;;
69434;SDS011;56625;54.322;18.582;2023-10-19T07:52:08;3.70;;;0.80;;
69434;SDS011;56625;54.322;18.582;2023-10-19T07:54:38;4.60;;;0.70;;
69434;SDS011;56625;54.322;18.582;2023-10-19T07:57:06;3.60;;;0.80;;
69434;SDS011;56625;54.322;18.582;2023-10-19T07:59:34;4.20;;;0.80;;
69434;SDS011;56625;54.322;18.582;2023-10-19T08:02:02;2.90;;;0.80;;
69434;SDS011;56625;54.322;18.582;2023-10-19T08:04:31;3.60;;;0.80;;
69434;SDS011;56625;54.322;18.582;2023-10-19T08:06:59;3.90;;;0.80;;
69434;SDS011;56625;54.322;18.582;2023-10-19T08:09:27;3.10;;;0.60;;
69434;SDS011;56625;54.322;18.582;2023-10-19T08:11:59;4.00;;;0.80;;
69434;SDS011;56625;54.322;18.582;2023-10-19T08:14:29;4.10;;;0.90;;
69434;SDS011;56625;54.322;18.582;2023-10-19T08:16:58;3.80;;;0.80;;
69434;SDS011;56625;54.322;18.582;2023-10-19T08:19:29;4.30;;;0.70;;
69434;SDS011;56625;54.322;18.582;2023-10-19T08:22:00;3.50;;;0.70;;
69434;SDS011;56625;54.322;18.582;2023-10-19T08:24:28;3.90;;;0.70;;
69434;SDS011;56625;54.322;18.582;2023-10-19T08:26:58;3.60;;;0.80;;
69434;SDS011;56625;54.322;18.582;2023-10-19T08:29:27;3.90;;;0.70;;
69434;SDS011;56625;54.322;18.582;2023-10-19T08:31:56;5.00;;;0.80;;
69434;SDS011;56625;54.322;18.582;2023-10-19T08:34:24;4.00;;;0.90;;
69434;SDS011;56625;54.322;18.582;2023-10-19T08:36:53;2.50;;;0.50;;
69434;SDS011;56625;54.322;18.582;2023-10-19T08:39:21;3.20;;;0.60;;
69434;SDS011;56625;54.322;18.582;2023-10-19T08:42:11;3.20;;;0.60;;
69434;SDS011;56625;54.322;18.582;2023-10-19T08:44:39;4.20;;;0.70;;
69434;SDS011;56625;54.322;18.582;2023-10-19T08:47:09;2.90;;;0.40;;
69434;SDS011;56625;54.322;18.582;2023-10-19T08:49:37;3.80;;;0.50;;
69434;SDS011;56625;54.322;18.582;2023-10-19T08:52:07;3.80;;;0.70;;
69434;SDS011;56625;54.322;18.582;2023-10-19T08:54:35;3.50;;;0.80;;
69434;SDS011;56625;54.322;18.582;2023-10-19T08:57:03;4.50;;;0.90;;
69434;SDS011;56625;54.322;18.582;2023-10-19T08:59:31;6.50;;;1.20;;
69434;SDS011;56625;54.322;18.582;2023-10-19T09:02:03;3.80;;;0.80;;
69434;SDS011;56625;54.322;18.582;2023-10-19T09:04:31;3.40;;;0.70;;
69434;SDS011;56625;54.322;18.582;2023-10-19T09:07:00;3.80;;;0.70;;
69434;SDS011;56625;54.322;18.582;2023-10-19T09:09:29;3.10;;;0.50;;
69434;SDS011;56625;54.322;18.582;2023-10-19T09:12:00;2.40;;;0.60;;
69434;SDS011;56625;54.322;18.582;2023-10-19T09:14:35;3.50;;;0.70;;
69434;SDS011;56625;54.322;18.582;2023-10-19T09:17:09;6.10;;;1.00;;
69434;SDS011;56625;54.322;18.582;2023-10-19T09:19:44;5.80;;;1.00;;
69434;SDS011;56625;54.322;18.582;2023-10-19T09:22:15;5.10;;;0.70;;
69434;SDS011;56625;54.322;18.582;2023-10-19T09:24:46;6.10;;;0.70;;
69434;SDS011;56625;54.322;18.582;2023-10-19T09:27:17;5.50;;;1.20;;
69434;SDS011;56625;54.322;18.582;2023-10-19T09:29:48;5.00;;;0.70;;
69434;SDS011;56625;54.322;18.582;2023-10-19T09:32:19;5.00;;;0.70;;
69434;SDS011;56625;54.322;18.582;2023-10-19T09:34:47;5.50;;;0.80;;
69434;SDS011;56625;54.322;18.582;2023-10-19T09:37:16;5.30;;;0.70;;
69434;SDS011;56625;54.322;18.582;2023-10-19T09:39:45;4.40;;;0.80;;
69434;SDS011;56625;54.322;18.582;2023-10-19T09:42:14;4.60;;;1.00;;
69434;SDS011;56625;54.322;18.582;2023-10-19T09:44:46;5.80;;;1.30;;
69434;SDS011;56625;54.322;18.582;2023-10-19T09:47:26;4.70;;;1.00;;
69434;SDS011;56625;54.322;18.582;2023-10-19T09:49:58;4.60;;;0.80;;
69434;SDS011;56625;54.322;18.582;2023-10-19T09:52:27;5.60;;;1.20;;
69434;SDS011;56625;54.322;18.582;2023-10-19T09:58:12;5.70;;;1.30;;
69434;SDS011;56625;54.322;18.582;2023-10-19T10:00:44;4.70;;;0.90;;
69434;SDS011;56625;54.322;18.582;2023-10-19T10:06:11;4.50;;;1.00;;
69434;SDS011;56625;54.322;18.582;2023-10-19T10:08:43;3.70;;;0.90;;
69434;SDS011;56625;54.322;18.582;2023-10-19T10:11:20;6.40;;;0.90;;
69434;SDS011;56625;54.322;18.582;2023-10-19T10:13:56;4.60;;;1.10;;
69434;SDS011;56625;54.322;18.582;2023-10-19T10:16:26;5.30;;;1.10;;
69434;SDS011;56625;54.322;18.582;2023-10-19T10:18:59;5.80;;;0.90;;
69434;SDS011;56625;54.322;18.582;2023-10-19T10:21:28;5.40;;;1.50;;
69434;SDS011;56625;54.322;18.582;2023-10-19T10:24:00;5.70;;;1.10;;
69434;SDS011;56625;54.322;18.582;2023-10-19T10:26:57;5.30;;;1.10;;
69434;SDS011;56625;54.322;18.582;2023-10-19T10:29:26;3.70;;;0.70;;
69434;SDS011;56625;54.322;18.582;2023-10-19T10:31:55;5.80;;;1.20;;
69434;SDS011;56625;54.322;18.582;2023-10-19T10:37:11;5.00;;;1.30;;
69434;SDS011;56625;54.322;18.582;2023-10-19T10:39:41;5.00;;;1.10;;
69434;SDS011;56625;54.322;18.582;2023-10-19T10:42:13;5.50;;;1.40;;
69434;SDS011;56625;54.322;18.582;2023-10-19T10:44:47;5.10;;;1.30;;
69434;SDS011;56625;54.322;18.582;2023-10-19T10:47:20;5.10;;;1.10;;
69434;SDS011;56625;54.322;18.582;2023-10-19T10:49:50;5.30;;;0.90;;
69434;SDS011;56625;54.322;18.582;2023-10-19T10:52:32;5.10;;;0.90;;
69434;SDS011;56625;54.322;18.582;2023-10-19T10:55:08;4.90;;;1.10;;
69434;SDS011;56625;54.322;18.582;2023-10-19T10:57:42;4.80;;;1.30;;
69434;SDS011;56625;54.322;18.582;2023-10-19T11:00:14;4.40;;;1.10;;
69434;SDS011;56625;54.322;18.582;2023-10-19T11:02:44;4.90;;;1.10;;
69434;SDS011;56625;54.322;18.582;2023-10-19T11:05:16;4.40;;;1.10;;
69434;SDS011;56625;54.322;18.582;2023-10-19T11:08:12;6.30;;;1.30;;
69434;SDS011;56625;54.322;18.582;2023-10-19T11:10:43;4.80;;;1.30;;
69434;SDS011;56625;54.322;18.582;2023-10-19T11:13:17;4.90;;;1.30;;
69434;SDS011;56625;54.322;18.582;2023-10-19T11:15:54;6.00;;;1.50;;
69434;SDS011;56625;54.322;18.582;2023-10-19T11:18:40;6.70;;;1.50;;
69434;SDS011;56625;54.322;18.582;2023-10-19T11:21:13;4.80;;;1.20;;
69434;SDS011;56625;54.322;18.582;2023-10-19T11:23:48;5.20;;;1.50;;
69434;SDS011;56625;54.322;18.582;2023-10-19T11:26:22;8.90;;;2.10;;
69434;SDS011;56625;54.322;18.582;2023-10-19T11:29:01;6.40;;;2.00;;
69434;SDS011;56625;54.322;18.582;2023-10-19T11:31:33;6.70;;;1.50;;
69434;SDS011;56625;54.322;18.582;2023-10-19T11:34:07;7.90;;;1.90;;
69434;SDS011;56625;54.322;18.582;2023-10-19T11:36:36;6.30;;;1.80;;
69434;SDS011;56625;54.322;18.582;2023-10-19T11:39:04;6.50;;;1.70;;
69434;SDS011;56625;54.322;18.582;2023-10-19T11:41:32;5.40;;;1.40;;
69434;SDS011;56625;54.322;18.582;2023-10-19T11:44:00;7.70;;;1.80;;
69434;SDS011;56625;54.322;18.582;2023-10-19T11:46:29;5.80;;;1.60;;
69434;SDS011;56625;54.322;18.582;2023-10-19T11:48:57;4.40;;;1.10;;
69434;SDS011;56625;54.322;18.582;2023-10-19T11:51:26;5.20;;;1.70;;
69434;SDS011;56625;54.322;18.582;2023-10-19T11:53:54;5.50;;;1.50;;
69434;SDS011;56625;54.322;18.582;2023-10-19T11:56:23;5.90;;;1.80;;
69434;SDS011;56625;54.322;18.582;2023-10-19T11:58:52;5.50;;;1.70;;
69434;SDS011;56625;54.322;18.582;2023-10-19T12:01:20;6.80;;;1.60;;
69434;SDS011;56625;54.322;18.582;2023-10-19T12:03:48;4.00;;;0.90;;
69434;SDS011;56625;54.322;18.582;2023-10-19T12:06:17;4.90;;;1.40;;
69434;SDS011;56625;54.322;18.582;2023-10-19T12:08:51;7.50;;;1.40;;
69434;SDS011;56625;54.322;18.582;2023-10-19T12:11:19;5.50;;;1.20;;
69434;SDS011;56625;54.322;18.582;2023-10-19T12:13:47;5.20;;;1.20;;
69434;SDS011;56625;54.322;18.582;2023-10-19T12:16:16;6.10;;;1.60;;
69434;SDS011;56625;54.322;18.582;2023-10-19T12:18:45;4.10;;;0.90;;
69434;SDS011;56625;54.322;18.582;2023-10-19T12:21:14;5.70;;;1.50;;
69434;SDS011;56625;54.322;18.582;2023-10-19T12:23:43;7.00;;;1.60;;
69434;SDS011;56625;54.322;18.582;2023-10-19T12:26:12;5.70;;;1.20;;
69434;SDS011;56625;54.322;18.582;2023-10-19T12:28:40;5.00;;;1.40;;
69434;SDS011;56625;54.322;18.582;2023-10-19T12:31:13;4.50;;;1.50;;
69434;SDS011;56625;54.322;18.582;2023-10-19T12:33:41;6.50;;;1.50;;
69434;SDS011;56625;54.322;18.582;2023-10-19T12:36:09;5.40;;;1.50;;
69434;SDS011;56625;54.322;18.582;2023-10-19T12:38:55;4.30;;;1.10;;
69434;SDS011;56625;54.322;18.582;2023-10-19T12:41:24;5.40;;;1.10;;
69434;SDS011;56625;54.322;18.582;2023-10-19T12:43:52;5.50;;;1.30;;
69434;SDS011;56625;54.322;18.582;2023-10-19T12:46:25;5.30;;;1.80;;
69434;SDS011;56625;54.322;18.582;2023-10-19T12:48:53;4.60;;;1.20;;
69434;SDS011;56625;54.322;18.582;2023-10-19T12:51:24;4.00;;;1.20;;
69434;SDS011;56625;54.322;18.582;2023-10-19T12:53:53;5.00;;;1.40;;
69434;SDS011;56625;54.322;18.582;2023-10-19T12:56:22;5.90;;;1.70;;
69434;SDS011;56625;54.322;18.582;2023-10-19T12:58:52;6.70;;;1.50;;
69434;SDS011;56625;54.322;18.582;2023-10-19T13:01:22;5.50;;;1.50;;
69434;SDS011;56625;54.322;18.582;2023-10-19T13:03:50;4.60;;;1.10;;
69434;SDS011;56625;54.322;18.582;2023-10-19T13:06:19;4.20;;;1.20;;
69434;SDS011;56625;54.322;18.582;2023-10-19T13:08:47;5.70;;;1.90;;
69434;SDS011;56625;54.322;18.582;2023-10-19T13:11:15;5.20;;;1.50;;
69434;SDS011;56625;54.322;18.582;2023-10-19T13:13:46;5.40;;;1.60;;
69434;SDS011;56625;54.322;18.582;2023-10-19T13:16:15;5.50;;;1.30;;
69434;SDS011;56625;54.322;18.582;2023-10-19T13:18:44;5.70;;;1.40;;
69434;SDS011;56625;54.322;18.582;2023-10-19T13:21:12;4.70;;;1.30;;
69434;SDS011;56625;54.322;18.582;2023-10-19T13:23:45;4.50;;;1.10;;
69434;SDS011;56625;54.322;18.582;2023-10-19T13:26:13;5.20;;;1.40;;
69434;SDS011;56625;54.322;18.582;2023-10-19T13:28:44;6.20;;;1.40;;
69434;SDS011;56625;54.322;18.582;2023-10-19T13:31:13;6.60;;;1.40;;
69434;SDS011;56625;54.322;18.582;2023-10-19T13:33:44;6.40;;;1.60;;
69434;SDS011;56625;54.322;18.582;2023-10-19T13:36:13;6.70;;;1.90;;
69434;SDS011;56625;54.322;18.582;2023-10-19T13:38:41;5.60;;;1.40;;
69434;SDS011;56625;54.322;18.582;2023-10-19T13:41:11;6.40;;;1.20;;
69434;SDS011;56625;54.322;18.582;2023-10-19T13:43:39;6.60;;;1.30;;
69434;SDS011;56625;54.322;18.582;2023-10-19T13:46:11;6.00;;;1.50;;
69434;SDS011;56625;54.322;18.582;2023-10-19T13:48:39;4.60;;;1.20;;
69434;SDS011;56625;54.322;18.582;2023-10-19T13:51:08;5.10;;;1.40;;
69434;SDS011;56625;54.322;18.582;2023-10-19T13:53:42;5.80;;;1.30;;
69434;SDS011;56625;54.322;18.582;2023-10-19T13:56:13;6.40;;;1.40;;
69434;SDS011;56625;54.322;18.582;2023-10-19T13:58:43;6.40;;;1.30;;
69434;SDS011;56625;54.322;18.582;2023-10-19T14:01:11;6.10;;;1.40;;
69434;SDS011;56625;54.322;18.582;2023-10-19T14:03:42;6.20;;;1.50;;
69434;SDS011;56625;54.322;18.582;2023-10-19T14:06:13;5.70;;;1.50;;
69434;SDS011;56625;54.322;18.582;2023-10-19T14:08:43;4.90;;;1.40;;
69434;SDS011;56625;54.322;18.582;2023-10-19T14:11:11;4.90;;;1.40;;
69434;SDS011;56625;54.322;18.582;2023-10-19T14:13:39;5.30;;;1.40;;
69434;SDS011;56625;54.322;18.582;2023-10-19T14:16:11;5.00;;;1.40;;
69434;SDS011;56625;54.322;18.582;2023-10-19T14:18:39;5.60;;;1.50;;
69434;SDS011;56625;54.322;18.582;2023-10-19T14:21:14;6.80;;;1.80;;
69434;SDS011;56625;54.322;18.582;2023-10-19T14:23:44;7.60;;;1.70;;
69434;SDS011;56625;54.322;18.582;2023-10-19T14:26:13;5.70;;;1.60;;
69434;SDS011;56625;54.322;18.582;2023-10-19T14:28:42;7.00;;;1.60;;
69434;SDS011;56625;54.322;18.582;2023-10-19T14:31:10;7.40;;;1.70;;
69434;SDS011;56625;54.322;18.582;2023-10-19T14:33:40;6.20;;;1.80;;
69434;SDS011;56625;54.322;18.582;2023-10-19T14:36:08;6.60;;;1.60;;
69434;SDS011;56625;54.322;18.582;2023-10-19T14:38:36;5.10;;;1.60;;
69434;SDS011;56625;54.322;18.582;2023-10-19T14:41:10;5.10;;;1.40;;
69434;SDS011;56625;54.322;18.582;2023-10-19T14:43:38;6.70;;;1.80;;
69434;SDS011;56625;54.322;18.582;2023-10-19T14:46:06;6.00;;;1.50;;
69434;SDS011;56625;54.322;18.582;2023-10-19T14:48:35;6.30;;;1.50;;
69434;SDS011;56625;54.322;18.582;2023-10-19T14:51:04;8.10;;;1.90;;
69434;SDS011;56625;54.322;18.582;2023-10-19T14:53:33;5.50;;;1.70;;
69434;SDS011;56625;54.322;18.582;2023-10-19T14:56:02;7.50;;;1.60;;
69434;SDS011;56625;54.322;18.582;2023-10-19T14:58:30;6.00;;;1.60;;
69434;SDS011;56625;54.322;18.582;2023-10-19T15:00:59;5.40;;;1.60;;
69434;SDS011;56625;54.322;18.582;2023-10-19T15:03:28;5.20;;;1.20;;